Deerfield Beach, FL

7:49 PM EDT on May 29, 2015 (GMT -0400)
Deerfield Beach | | Change Station
CLOSE
Current Station
Personal Weather Station
Location: Deerfield Beach, FL
Elevation: 30 ft
Nearby Weather Stations

Elev 30 ft 26.32 °N, 80.12 °W | Updated 4 minutes ago

Partly Cloudy
Partly Cloudy
83.3 °F
Feels Like 89 °F
N
6.0
Wind Variable Wind from NE
Gusts 12.0 mph

Today
High -- | Low -- °F
--% Chance of Precip.
Yesterday
High -- | Low -- °F
Precip. -- in
6:28 AM 8:07 PM
Waxing Gibbous, 86% visible
Pressure 30.04 in
Visibility 10.0 miles
Clouds Few 8500 ft
Heat Index 89 °F
Dew Point 72 °F
Humidity 69%
Rainfall 0.00 in
Snow Depth Not available.
UV 1 out of 12
Pollen 4.20 out of 12
Air Quality Not available.
Flu Activity Sporadic
METAR KPMP 292253Z 07010KT 10SM FEW085 27/21 A3004 RMK AO2 SLP173 T02720211

More Conditions Fewer Conditions

Pressure 30.04 in
Visibility 10.0 miles
Clouds Few 8500 ft
Heat Index 89 °F
Dew Point 72 °F
Humidity 69%
Rainfall 0.00 in
Snow Depth Not available.
UV 1 out of 12
Pollen 4.20 out of 12
Air Quality Not available.
Flu Activity Sporadic
METAR KPMP 292253Z 07010KT 10SM FEW085 27/21 A3004 RMK AO2 SLP173 T02720211

More Conditions Fewer Conditions

10-Day Weather Forecast

Almanac

Astronomy

May. 29, 2015 Rise Set
Actual Time
Civil Twilight
Nautical Twilight
Astronomical Twilight
Moon
Length of Visible Light
Length of Day
Tomorrow will be .
, % of the Moon is Illuminated

Today's Extremes

State Highs State Lows

Community

WunderPhotos

Upload Photos

1,825,402 photos uploaded!

WunderBlogs® & News

Nearby

Air Quality

  Air Quality AQ Index Pollutant
Not available.

Snow Depth

Station Depth Elevation

Earthquake Activity

City Distance Mag. Time & Date
Minimum magnitude displayed is 2.5.

Coastal Water Temperatures

Place Temperature

Stations

Nearby Weather Stations

Station Location Temp. Windchill Dew Point Humidity Wind Precip. Elev Updated Type